sensor_id;sensor_type;location;lat;lon;timestamp;P1;durP1;ratioP1;P2;durP2;ratioP2
53666;SDS011;39568;51.026;5.468;2024-03-07T00:02:17;178.18;;;75.68;;
53666;SDS011;39568;51.026;5.468;2024-03-07T00:04:44;181.55;;;79.60;;
53666;SDS011;39568;51.026;5.468;2024-03-07T00:07:12;174.50;;;77.90;;
53666;SDS011;39568;51.026;5.468;2024-03-07T00:09:38;160.77;;;69.90;;
53666;SDS011;39568;51.026;5.468;2024-03-07T00:12:05;178.95;;;76.20;;
53666;SDS011;39568;51.026;5.468;2024-03-07T00:14:32;161.07;;;67.70;;
53666;SDS011;39568;51.026;5.468;2024-03-07T00:17:00;153.50;;;64.22;;
53666;SDS011;39568;51.026;5.468;2024-03-07T00:19:28;149.07;;;62.65;;
53666;SDS011;39568;51.026;5.468;2024-03-07T00:21:55;162.50;;;70.45;;
53666;SDS011;39568;51.026;5.468;2024-03-07T00:24:23;163.27;;;70.13;;
53666;SDS011;39568;51.026;5.468;2024-03-07T00:26:49;175.13;;;72.90;;
53666;SDS011;39568;51.026;5.468;2024-03-07T00:29:16;161.00;;;65.88;;
53666;SDS011;39568;51.026;5.468;2024-03-07T00:31:43;153.65;;;65.03;;
53666;SDS011;39568;51.026;5.468;2024-03-07T00:34:10;177.88;;;69.05;;
53666;SDS011;39568;51.026;5.468;2024-03-07T00:36:39;158.07;;;67.72;;
53666;SDS011;39568;51.026;5.468;2024-03-07T00:39:05;160.75;;;65.53;;
53666;SDS011;39568;51.026;5.468;2024-03-07T00:41:34;164.10;;;68.03;;
53666;SDS011;39568;51.026;5.468;2024-03-07T00:44:01;178.45;;;73.72;;
53666;SDS011;39568;51.026;5.468;2024-03-07T00:46:28;176.02;;;68.43;;
53666;SDS011;39568;51.026;5.468;2024-03-07T00:48:54;163.20;;;66.13;;
53666;SDS011;39568;51.026;5.468;2024-03-07T00:51:21;185.32;;;71.93;;
53666;SDS011;39568;51.026;5.468;2024-03-07T00:53:48;183.70;;;70.72;;
53666;SDS011;39568;51.026;5.468;2024-03-07T00:56:14;185.25;;;67.95;;
53666;SDS011;39568;51.026;5.468;2024-03-07T00:58:42;217.30;;;81.80;;
53666;SDS011;39568;51.026;5.468;2024-03-07T01:01:09;221.35;;;84.63;;
53666;SDS011;39568;51.026;5.468;2024-03-07T01:03:36;212.85;;;77.85;;
53666;SDS011;39568;51.026;5.468;2024-03-07T01:06:03;224.20;;;79.00;;
53666;SDS011;39568;51.026;5.468;2024-03-07T01:08:30;208.95;;;74.93;;
53666;SDS011;39568;51.026;5.468;2024-03-07T01:10:57;190.48;;;80.28;;
53666;SDS011;39568;51.026;5.468;2024-03-07T01:13:24;195.27;;;77.85;;
53666;SDS011;39568;51.026;5.468;2024-03-07T01:15:52;205.50;;;80.97;;
53666;SDS011;39568;51.026;5.468;2024-03-07T01:18:18;201.55;;;75.57;;
53666;SDS011;39568;51.026;5.468;2024-03-07T01:20:44;202.38;;;73.47;;
53666;SDS011;39568;51.026;5.468;2024-03-07T01:23:11;163.63;;;69.07;;
53666;SDS011;39568;51.026;5.468;2024-03-07T01:25:37;178.00;;;72.20;;
53666;SDS011;39568;51.026;5.468;2024-03-07T01:28:05;171.73;;;72.00;;
53666;SDS011;39568;51.026;5.468;2024-03-07T01:30:32;165.98;;;73.47;;
53666;SDS011;39568;51.026;5.468;2024-03-07T01:32:59;204.32;;;76.15;;
53666;SDS011;39568;51.026;5.468;2024-03-07T01:35:26;200.05;;;79.90;;
53666;SDS011;39568;51.026;5.468;2024-03-07T01:37:52;188.32;;;75.82;;
53666;SDS011;39568;51.026;5.468;2024-03-07T01:40:19;198.57;;;78.13;;
53666;SDS011;39568;51.026;5.468;2024-03-07T01:42:46;196.32;;;78.25;;
53666;SDS011;39568;51.026;5.468;2024-03-07T01:45:13;205.48;;;77.20;;
53666;SDS011;39568;51.026;5.468;2024-03-07T01:47:40;180.13;;;73.13;;
53666;SDS011;39568;51.026;5.468;2024-03-07T01:50:08;190.73;;;75.07;;
53666;SDS011;39568;51.026;5.468;2024-03-07T01:52:35;185.52;;;72.38;;
53666;SDS011;39568;51.026;5.468;2024-03-07T01:55:02;184.48;;;74.43;;
53666;SDS011;39568;51.026;5.468;2024-03-07T01:57:29;199.27;;;80.07;;
53666;SDS011;39568;51.026;5.468;2024-03-07T01:59:55;215.95;;;81.75;;
53666;SDS011;39568;51.026;5.468;2024-03-07T02:02:22;229.82;;;80.82;;
53666;SDS011;39568;51.026;5.468;2024-03-07T02:04:49;233.02;;;84.15;;
53666;SDS011;39568;51.026;5.468;2024-03-07T02:07:17;281.73;;;92.43;;
53666;SDS011;39568;51.026;5.468;2024-03-07T02:09:43;278.23;;;90.40;;
53666;SDS011;39568;51.026;5.468;2024-03-07T02:12:10;295.58;;;94.25;;
53666;SDS011;39568;51.026;5.468;2024-03-07T02:14:36;329.80;;;100.32;;
53666;SDS011;39568;51.026;5.468;2024-03-07T02:17:03;318.73;;;105.35;;
53666;SDS011;39568;51.026;5.468;2024-03-07T02:19:29;337.15;;;100.45;;
53666;SDS011;39568;51.026;5.468;2024-03-07T02:21:58;331.85;;;104.20;;
53666;SDS011;39568;51.026;5.468;2024-03-07T02:24:25;329.20;;;105.47;;
53666;SDS011;39568;51.026;5.468;2024-03-07T02:26:51;368.77;;;106.30;;
53666;SDS011;39568;51.026;5.468;2024-03-07T02:29:18;352.35;;;107.32;;
53666;SDS011;39568;51.026;5.468;2024-03-07T02:31:45;355.02;;;103.30;;
53666;SDS011;39568;51.026;5.468;2024-03-07T02:34:11;359.88;;;105.97;;
53666;SDS011;39568;51.026;5.468;2024-03-07T02:36:38;366.17;;;111.60;;
53666;SDS011;39568;51.026;5.468;2024-03-07T02:39:09;384.55;;;112.30;;
53666;SDS011;39568;51.026;5.468;2024-03-07T02:41:37;378.13;;;111.57;;
53666;SDS011;39568;51.026;5.468;2024-03-07T02:44:03;387.13;;;112.88;;
53666;SDS011;39568;51.026;5.468;2024-03-07T02:46:30;374.88;;;110.63;;
53666;SDS011;39568;51.026;5.468;2024-03-07T02:48:57;391.20;;;115.53;;
53666;SDS011;39568;51.026;5.468;2024-03-07T02:51:23;404.55;;;114.45;;
53666;SDS011;39568;51.026;5.468;2024-03-07T02:53:50;404.23;;;118.43;;
53666;SDS011;39568;51.026;5.468;2024-03-07T02:56:18;392.02;;;113.05;;
53666;SDS011;39568;51.026;5.468;2024-03-07T02:58:44;381.65;;;112.68;;
53666;SDS011;39568;51.026;5.468;2024-03-07T03:01:11;404.65;;;114.47;;
53666;SDS011;39568;51.026;5.468;2024-03-07T03:03:37;396.15;;;111.18;;
53666;SDS011;39568;51.026;5.468;2024-03-07T03:06:07;399.83;;;114.30;;
53666;SDS011;39568;51.026;5.468;2024-03-07T03:08:34;398.00;;;114.07;;
53666;SDS011;39568;51.026;5.468;2024-03-07T03:11:01;407.95;;;117.32;;
53666;SDS011;39568;51.026;5.468;2024-03-07T03:13:28;398.48;;;113.70;;
53666;SDS011;39568;51.026;5.468;2024-03-07T03:15:55;415.50;;;117.18;;
53666;SDS011;39568;51.026;5.468;2024-03-07T03:18:22;391.58;;;116.32;;
53666;SDS011;39568;51.026;5.468;2024-03-07T03:20:48;410.92;;;121.95;;
53666;SDS011;39568;51.026;5.468;2024-03-07T03:23:15;411.85;;;115.88;;
53666;SDS011;39568;51.026;5.468;2024-03-07T03:25:41;427.77;;;119.25;;
53666;SDS011;39568;51.026;5.468;2024-03-07T03:28:08;427.42;;;117.88;;
53666;SDS011;39568;51.026;5.468;2024-03-07T03:30:37;423.27;;;120.25;;
53666;SDS011;39568;51.026;5.468;2024-03-07T03:33:04;422.55;;;116.75;;
53666;SDS011;39568;51.026;5.468;2024-03-07T03:35:31;432.55;;;120.88;;
53666;SDS011;39568;51.026;5.468;2024-03-07T03:37:58;425.50;;;119.65;;
53666;SDS011;39568;51.026;5.468;2024-03-07T03:40:25;434.70;;;122.88;;
53666;SDS011;39568;51.026;5.468;2024-03-07T03:42:51;420.60;;;116.10;;
53666;SDS011;39568;51.026;5.468;2024-03-07T03:45:18;414.40;;;116.13;;
53666;SDS011;39568;51.026;5.468;2024-03-07T03:47:46;436.80;;;118.35;;
53666;SDS011;39568;51.026;5.468;2024-03-07T03:50:13;428.95;;;119.43;;
53666;SDS011;39568;51.026;5.468;2024-03-07T03:52:40;434.38;;;121.93;;
53666;SDS011;39568;51.026;5.468;2024-03-07T03:55:07;454.42;;;120.32;;
53666;SDS011;39568;51.026;5.468;2024-03-07T03:57:34;441.55;;;122.57;;
53666;SDS011;39568;51.026;5.468;2024-03-07T04:00:01;442.92;;;123.32;;
53666;SDS011;39568;51.026;5.468;2024-03-07T04:02:33;463.38;;;126.97;;
53666;SDS011;39568;51.026;5.468;2024-03-07T04:05:00;456.80;;;125.15;;
53666;SDS011;39568;51.026;5.468;2024-03-07T04:07:28;520.05;;;139.13;;
53666;SDS011;39568;51.026;5.468;2024-03-07T04:09:56;549.88;;;140.18;;
53666;SDS011;39568;51.026;5.468;2024-03-07T04:12:23;539.70;;;131.25;;
53666;SDS011;39568;51.026;5.468;2024-03-07T04:14:52;606.95;;;133.30;;
53666;SDS011;39568;51.026;5.468;2024-03-07T04:17:19;593.15;;;131.35;;
53666;SDS011;39568;51.026;5.468;2024-03-07T04:19:46;562.83;;;120.97;;
53666;SDS011;39568;51.026;5.468;2024-03-07T04:22:14;763.65;;;132.77;;
53666;SDS011;39568;51.026;5.468;2024-03-07T04:24:41;792.78;;;133.43;;
53666;SDS011;39568;51.026;5.468;2024-03-07T04:27:07;769.33;;;125.60;;
53666;SDS011;39568;51.026;5.468;2024-03-07T04:29:34;667.53;;;117.38;;
53666;SDS011;39568;51.026;5.468;2024-03-07T04:32:01;609.95;;;110.90;;
53666;SDS011;39568;51.026;5.468;2024-03-07T04:34:28;694.78;;;120.93;;
53666;SDS011;39568;51.026;5.468;2024-03-07T04:36:55;568.30;;;105.40;;
53666;SDS011;39568;51.026;5.468;2024-03-07T04:39:25;544.10;;;103.80;;
53666;SDS011;39568;51.026;5.468;2024-03-07T04:41:57;536.78;;;109.70;;
53666;SDS011;39568;51.026;5.468;2024-03-07T04:44:24;499.08;;;98.95;;
53666;SDS011;39568;51.026;5.468;2024-03-07T04:46:50;441.77;;;90.38;;
53666;SDS011;39568;51.026;5.468;2024-03-07T04:49:20;425.92;;;99.95;;
53666;SDS011;39568;51.026;5.468;2024-03-07T04:51:47;358.27;;;85.95;;
53666;SDS011;39568;51.026;5.468;2024-03-07T04:54:13;387.75;;;95.38;;
53666;SDS011;39568;51.026;5.468;2024-03-07T04:56:41;343.95;;;80.53;;
53666;SDS011;39568;51.026;5.468;2024-03-07T04:59:08;312.95;;;80.78;;
53666;SDS011;39568;51.026;5.468;2024-03-07T05:01:36;358.70;;;84.93;;
53666;SDS011;39568;51.026;5.468;2024-03-07T05:04:03;351.45;;;85.38;;
53666;SDS011;39568;51.026;5.468;2024-03-07T05:06:31;301.10;;;81.25;;
53666;SDS011;39568;51.026;5.468;2024-03-07T05:08:59;350.52;;;92.97;;
53666;SDS011;39568;51.026;5.468;2024-03-07T05:11:26;327.42;;;83.05;;
53666;SDS011;39568;51.026;5.468;2024-03-07T05:13:54;343.40;;;88.85;;
53666;SDS011;39568;51.026;5.468;2024-03-07T05:16:21;326.83;;;90.07;;
53666;SDS011;39568;51.026;5.468;2024-03-07T05:18:47;318.08;;;80.68;;
53666;SDS011;39568;51.026;5.468;2024-03-07T05:21:15;354.90;;;88.57;;
53666;SDS011;39568;51.026;5.468;2024-03-07T05:23:59;326.88;;;85.07;;
53666;SDS011;39568;51.026;5.468;2024-03-07T05:26:26;337.63;;;85.85;;
53666;SDS011;39568;51.026;5.468;2024-03-07T05:28:52;397.80;;;97.43;;
53666;SDS011;39568;51.026;5.468;2024-03-07T05:31:21;400.83;;;99.65;;
53666;SDS011;39568;51.026;5.468;2024-03-07T05:33:47;445.35;;;96.38;;
53666;SDS011;39568;51.026;5.468;2024-03-07T05:36:14;434.48;;;98.88;;
53666;SDS011;39568;51.026;5.468;2024-03-07T05:38:40;428.92;;;99.85;;
53666;SDS011;39568;51.026;5.468;2024-03-07T05:41:09;369.98;;;86.05;;
53666;SDS011;39568;51.026;5.468;2024-03-07T05:43:36;378.13;;;86.40;;
53666;SDS011;39568;51.026;5.468;2024-03-07T05:46:02;335.45;;;82.13;;
53666;SDS011;39568;51.026;5.468;2024-03-07T05:48:31;306.55;;;83.07;;
53666;SDS011;39568;51.026;5.468;2024-03-07T05:50:58;287.35;;;81.95;;
53666;SDS011;39568;51.026;5.468;2024-03-07T05:53:25;337.02;;;86.20;;
53666;SDS011;39568;51.026;5.468;2024-03-07T05:55:51;312.38;;;82.68;;
53666;SDS011;39568;51.026;5.468;2024-03-07T05:58:18;287.77;;;80.85;;
53666;SDS011;39568;51.026;5.468;2024-03-07T06:00:45;313.17;;;91.55;;
53666;SDS011;39568;51.026;5.468;2024-03-07T06:03:14;334.20;;;96.13;;
53666;SDS011;39568;51.026;5.468;2024-03-07T06:05:44;291.65;;;92.63;;
53666;SDS011;39568;51.026;5.468;2024-03-07T06:08:13;276.25;;;83.32;;
53666;SDS011;39568;51.026;5.468;2024-03-07T06:10:41;290.95;;;84.15;;
53666;SDS011;39568;51.026;5.468;2024-03-07T06:13:08;266.73;;;80.53;;
53666;SDS011;39568;51.026;5.468;2024-03-07T06:15:34;286.42;;;84.25;;
53666;SDS011;39568;51.026;5.468;2024-03-07T06:18:03;266.92;;;80.60;;
53666;SDS011;39568;51.026;5.468;2024-03-07T06:20:30;273.17;;;85.47;;
53666;SDS011;39568;51.026;5.468;2024-03-07T06:22:58;272.52;;;87.15;;
53666;SDS011;39568;51.026;5.468;2024-03-07T06:25:27;280.53;;;89.23;;
53666;SDS011;39568;51.026;5.468;2024-03-07T06:28:02;281.65;;;84.50;;
53666;SDS011;39568;51.026;5.468;2024-03-07T06:30:34;257.15;;;77.95;;
53666;SDS011;39568;51.026;5.468;2024-03-07T06:33:02;256.38;;;80.57;;
53666;SDS011;39568;51.026;5.468;2024-03-07T06:35:28;261.67;;;82.60;;
53666;SDS011;39568;51.026;5.468;2024-03-07T06:37:54;285.65;;;91.82;;
53666;SDS011;39568;51.026;5.468;2024-03-07T06:40:22;278.15;;;89.70;;
53666;SDS011;39568;51.026;5.468;2024-03-07T06:42:50;290.48;;;90.40;;
53666;SDS011;39568;51.026;5.468;2024-03-07T06:45:17;279.25;;;90.38;;
53666;SDS011;39568;51.026;5.468;2024-03-07T06:47:44;277.00;;;83.65;;
53666;SDS011;39568;51.026;5.468;2024-03-07T06:50:10;268.05;;;84.72;;
53666;SDS011;39568;51.026;5.468;2024-03-07T06:52:39;268.77;;;81.47;;
53666;SDS011;39568;51.026;5.468;2024-03-07T06:55:06;291.80;;;89.22;;
53666;SDS011;39568;51.026;5.468;2024-03-07T06:57:34;274.60;;;89.65;;
53666;SDS011;39568;51.026;5.468;2024-03-07T07:00:00;258.63;;;82.60;;
53666;SDS011;39568;51.026;5.468;2024-03-07T07:02:36;266.65;;;86.40;;
53666;SDS011;39568;51.026;5.468;2024-03-07T07:05:03;257.50;;;82.38;;
53666;SDS011;39568;51.026;5.468;2024-03-07T07:07:32;238.57;;;77.20;;
53666;SDS011;39568;51.026;5.468;2024-03-07T07:10:01;266.75;;;88.03;;
53666;SDS011;39568;51.026;5.468;2024-03-07T07:12:27;265.75;;;90.63;;
53666;SDS011;39568;51.026;5.468;2024-03-07T07:14:56;246.77;;;82.38;;
53666;SDS011;39568;51.026;5.468;2024-03-07T07:17:22;233.13;;;78.28;;
53666;SDS011;39568;51.026;5.468;2024-03-07T07:19:50;234.52;;;79.22;;
53666;SDS011;39568;51.026;5.468;2024-03-07T07:22:17;227.45;;;76.45;;
53666;SDS011;39568;51.026;5.468;2024-03-07T07:24:44;225.02;;;75.25;;
53666;SDS011;39568;51.026;5.468;2024-03-07T07:27:10;210.48;;;76.57;;
53666;SDS011;39568;51.026;5.468;2024-03-07T07:29:37;212.60;;;75.07;;
53666;SDS011;39568;51.026;5.468;2024-03-07T07:32:06;198.38;;;72.15;;
53666;SDS011;39568;51.026;5.468;2024-03-07T07:34:32;213.52;;;76.15;;
53666;SDS011;39568;51.026;5.468;2024-03-07T07:36:59;190.32;;;71.15;;
53666;SDS011;39568;51.026;5.468;2024-03-07T07:39:26;193.60;;;73.57;;
53666;SDS011;39568;51.026;5.468;2024-03-07T07:41:54;178.38;;;67.28;;
53666;SDS011;39568;51.026;5.468;2024-03-07T07:44:20;173.15;;;64.68;;
53666;SDS011;39568;51.026;5.468;2024-03-07T07:46:48;178.73;;;66.10;;
53666;SDS011;39568;51.026;5.468;2024-03-07T07:49:16;177.20;;;68.13;;
53666;SDS011;39568;51.026;5.468;2024-03-07T07:51:42;158.65;;;66.05;;
53666;SDS011;39568;51.026;5.468;2024-03-07T07:54:09;171.50;;;63.40;;
53666;SDS011;39568;51.026;5.468;2024-03-07T07:56:35;158.23;;;63.92;;
53666;SDS011;39568;51.026;5.468;2024-03-07T07:59:02;143.98;;;60.63;;
53666;SDS011;39568;51.026;5.468;2024-03-07T08:01:29;148.50;;;63.33;;
53666;SDS011;39568;51.026;5.468;2024-03-07T08:03:56;142.88;;;59.58;;
53666;SDS011;39568;51.026;5.468;2024-03-07T08:06:25;139.95;;;60.58;;
53666;SDS011;39568;51.026;5.468;2024-03-07T08:08:51;138.30;;;58.10;;
53666;SDS011;39568;51.026;5.468;2024-03-07T08:11:18;132.20;;;58.35;;
53666;SDS011;39568;51.026;5.468;2024-03-07T08:13:44;115.53;;;51.95;;
53666;SDS011;39568;51.026;5.468;2024-03-07T08:16:12;120.13;;;54.53;;
53666;SDS011;39568;51.026;5.468;2024-03-07T08:18:39;116.05;;;51.35;;
53666;SDS011;39568;51.026;5.468;2024-03-07T08:21:06;101.30;;;51.03;;
53666;SDS011;39568;51.026;5.468;2024-03-07T08:23:37;107.00;;;52.38;;
53666;SDS011;39568;51.026;5.468;2024-03-07T08:26:03;108.53;;;50.78;;
53666;SDS011;39568;51.026;5.468;2024-03-07T08:28:30;108.00;;;49.00;;
53666;SDS011;39568;51.026;5.468;2024-03-07T08:30:57;95.40;;;48.55;;
53666;SDS011;39568;51.026;5.468;2024-03-07T08:33:34;87.95;;;45.38;;
53666;SDS011;39568;51.026;5.468;2024-03-07T08:36:00;88.65;;;43.28;;
53666;SDS011;39568;51.026;5.468;2024-03-07T08:38:27;74.32;;;41.70;;
53666;SDS011;39568;51.026;5.468;2024-03-07T08:40:53;74.80;;;39.88;;
53666;SDS011;39568;51.026;5.468;2024-03-07T08:43:20;74.82;;;38.40;;
53666;SDS011;39568;51.026;5.468;2024-03-07T08:45:46;71.10;;;37.97;;
53666;SDS011;39568;51.026;5.468;2024-03-07T08:48:13;68.70;;;37.17;;
53666;SDS011;39568;51.026;5.468;2024-03-07T08:50:41;65.55;;;34.13;;
53666;SDS011;39568;51.026;5.468;2024-03-07T08:53:07;59.92;;;35.17;;
53666;SDS011;39568;51.026;5.468;2024-03-07T08:55:33;61.25;;;31.08;;
53666;SDS011;39568;51.026;5.468;2024-03-07T08:58:01;60.97;;;34.33;;
53666;SDS011;39568;51.026;5.468;2024-03-07T09:00:27;50.53;;;28.30;;
53666;SDS011;39568;51.026;5.468;2024-03-07T09:02:54;52.17;;;28.98;;
53666;SDS011;39568;51.026;5.468;2024-03-07T09:05:23;59.03;;;30.90;;
53666;SDS011;39568;51.026;5.468;2024-03-07T09:07:51;52.80;;;26.60;;
53666;SDS011;39568;51.026;5.468;2024-03-07T09:10:18;47.72;;;26.33;;
53666;SDS011;39568;51.026;5.468;2024-03-07T09:12:45;52.97;;;27.63;;
53666;SDS011;39568;51.026;5.468;2024-03-07T09:15:13;50.30;;;27.05;;
53666;SDS011;39568;51.026;5.468;2024-03-07T09:17:41;59.60;;;27.42;;
53666;SDS011;39568;51.026;5.468;2024-03-07T09:20:08;48.55;;;24.75;;
53666;SDS011;39568;51.026;5.468;2024-03-07T09:22:39;56.63;;;29.02;;
53666;SDS011;39568;51.026;5.468;2024-03-07T09:25:08;57.67;;;27.33;;
53666;SDS011;39568;51.026;5.468;2024-03-07T09:27:35;49.92;;;26.08;;
53666;SDS011;39568;51.026;5.468;2024-03-07T09:30:02;50.90;;;27.02;;
53666;SDS011;39568;51.026;5.468;2024-03-07T09:32:29;40.78;;;24.52;;
53666;SDS011;39568;51.026;5.468;2024-03-07T09:34:58;46.10;;;24.30;;
53666;SDS011;39568;51.026;5.468;2024-03-07T09:37:25;41.10;;;24.10;;
53666;SDS011;39568;51.026;5.468;2024-03-07T09:39:52;45.92;;;26.52;;
53666;SDS011;39568;51.026;5.468;2024-03-07T09:42:20;44.10;;;24.15;;
53666;SDS011;39568;51.026;5.468;2024-03-07T09:44:47;41.08;;;25.45;;
53666;SDS011;39568;51.026;5.468;2024-03-07T09:47:15;42.40;;;24.98;;
53666;SDS011;39568;51.026;5.468;2024-03-07T09:49:42;41.90;;;23.65;;
53666;SDS011;39568;51.026;5.468;2024-03-07T09:52:08;43.00;;;25.15;;
53666;SDS011;39568;51.026;5.468;2024-03-07T09:54:36;45.03;;;22.75;;
53666;SDS011;39568;51.026;5.468;2024-03-07T09:57:04;43.85;;;23.98;;
53666;SDS011;39568;51.026;5.468;2024-03-07T09:59:35;42.28;;;24.50;;
53666;SDS011;39568;51.026;5.468;2024-03-07T10:02:03;51.50;;;24.85;;
53666;SDS011;39568;51.026;5.468;2024-03-07T10:04:31;38.13;;;22.38;;
53666;SDS011;39568;51.026;5.468;2024-03-07T10:07:03;36.90;;;24.45;;
53666;SDS011;39568;51.026;5.468;2024-03-07T10:09:36;46.88;;;26.02;;
53666;SDS011;39568;51.026;5.468;2024-03-07T10:12:05;40.63;;;25.75;;
53666;SDS011;39568;51.026;5.468;2024-03-07T10:14:36;41.08;;;23.52;;
53666;SDS011;39568;51.026;5.468;2024-03-07T10:17:03;42.35;;;25.15;;
53666;SDS011;39568;51.026;5.468;2024-03-07T10:19:30;36.70;;;23.08;;
53666;SDS011;39568;51.026;5.468;2024-03-07T10:21:57;44.63;;;25.63;;
53666;SDS011;39568;51.026;5.468;2024-03-07T10:24:26;43.28;;;25.25;;
53666;SDS011;39568;51.026;5.468;2024-03-07T10:26:53;38.92;;;25.50;;
53666;SDS011;39568;51.026;5.468;2024-03-07T10:29:21;45.17;;;24.00;;
53666;SDS011;39568;51.026;5.468;2024-03-07T10:31:50;41.70;;;25.35;;
53666;SDS011;39568;51.026;5.468;2024-03-07T10:34:16;39.03;;;25.20;;
53666;SDS011;39568;51.026;5.468;2024-03-07T10:36:43;42.28;;;25.25;;
53666;SDS011;39568;51.026;5.468;2024-03-07T10:39:10;47.42;;;26.17;;
53666;SDS011;39568;51.026;5.468;2024-03-07T10:41:41;40.55;;;24.13;;
53666;SDS011;39568;51.026;5.468;2024-03-07T10:44:10;38.70;;;23.48;;
53666;SDS011;39568;51.026;5.468;2024-03-07T10:46:38;44.42;;;24.38;;
53666;SDS011;39568;51.026;5.468;2024-03-07T10:49:07;38.13;;;22.58;;
53666;SDS011;39568;51.026;5.468;2024-03-07T10:51:39;34.22;;;20.55;;
53666;SDS011;39568;51.026;5.468;2024-03-07T10:54:12;35.38;;;22.05;;
53666;SDS011;39568;51.026;5.468;2024-03-07T10:56:44;40.75;;;21.88;;
53666;SDS011;39568;51.026;5.468;2024-03-07T10:59:16;35.40;;;22.05;;
53666;SDS011;39568;51.026;5.468;2024-03-07T11:01:45;34.38;;;20.92;;
53666;SDS011;39568;51.026;5.468;2024-03-07T11:06:41;27.48;;;17.58;;
53666;SDS011;39568;51.026;5.468;2024-03-07T11:09:10;29.02;;;17.58;;
53666;SDS011;39568;51.026;5.468;2024-03-07T11:11:37;27.08;;;18.08;;
53666;SDS011;39568;51.026;5.468;2024-03-07T11:14:05;29.48;;;20.13;;
53666;SDS011;39568;51.026;5.468;2024-03-07T11:16:32;29.40;;;20.33;;
53666;SDS011;39568;51.026;5.468;2024-03-07T11:21:45;32.00;;;20.73;;
53666;SDS011;39568;51.026;5.468;2024-03-07T11:24:22;31.67;;;19.98;;
53666;SDS011;39568;51.026;5.468;2024-03-07T11:26:50;28.00;;;16.98;;
53666;SDS011;39568;51.026;5.468;2024-03-07T11:32:06;29.45;;;18.75;;
53666;SDS011;39568;51.026;5.468;2024-03-07T11:34:32;30.83;;;20.05;;
53666;SDS011;39568;51.026;5.468;2024-03-07T11:37:05;30.55;;;19.17;;
53666;SDS011;39568;51.026;5.468;2024-03-07T11:39:39;29.83;;;18.92;;
53666;SDS011;39568;51.026;5.468;2024-03-07T11:42:06;24.58;;;18.63;;
53666;SDS011;39568;51.026;5.468;2024-03-07T11:44:32;26.23;;;17.98;;
53666;SDS011;39568;51.026;5.468;2024-03-07T11:47:00;27.77;;;19.67;;
53666;SDS011;39568;51.026;5.468;2024-03-07T11:49:33;27.27;;;19.52;;
53666;SDS011;39568;51.026;5.468;2024-03-07T11:52:01;38.15;;;20.90;;
53666;SDS011;39568;51.026;5.468;2024-03-07T11:54:31;33.55;;;19.85;;
53666;SDS011;39568;51.026;5.468;2024-03-07T11:56:57;27.45;;;19.77;;
53666;SDS011;39568;51.026;5.468;2024-03-07T11:59:24;23.85;;;17.17;;
53666;SDS011;39568;51.026;5.468;2024-03-07T12:01:57;28.20;;;18.45;;
53666;SDS011;39568;51.026;5.468;2024-03-07T12:04:26;25.77;;;15.88;;
53666;SDS011;39568;51.026;5.468;2024-03-07T12:06:52;36.45;;;17.02;;
53666;SDS011;39568;51.026;5.468;2024-03-07T12:09:19;24.58;;;17.17;;
53666;SDS011;39568;51.026;5.468;2024-03-07T12:11:50;26.20;;;17.27;;
53666;SDS011;39568;51.026;5.468;2024-03-07T12:14:18;27.52;;;18.77;;
53666;SDS011;39568;51.026;5.468;2024-03-07T12:16:44;19.60;;;16.08;;
53666;SDS011;39568;51.026;5.468;2024-03-07T12:19:12;23.80;;;15.77;;
53666;SDS011;39568;51.026;5.468;2024-03-07T12:21:38;27.00;;;18.00;;
53666;SDS011;39568;51.026;5.468;2024-03-07T12:24:10;26.45;;;17.65;;
53666;SDS011;39568;51.026;5.468;2024-03-07T12:26:37;29.58;;;18.17;;
53666;SDS011;39568;51.026;5.468;2024-03-07T12:29:08;27.00;;;18.00;;
53666;SDS011;39568;51.026;5.468;2024-03-07T12:31:37;23.63;;;17.15;;
53666;SDS011;39568;51.026;5.468;2024-03-07T12:34:03;25.60;;;17.88;;
53666;SDS011;39568;51.026;5.468;2024-03-07T12:36:30;21.30;;;15.38;;
53666;SDS011;39568;51.026;5.468;2024-03-07T12:39:00;26.02;;;15.23;;
53666;SDS011;39568;51.026;5.468;2024-03-07T12:41:34;20.70;;;15.45;;
53666;SDS011;39568;51.026;5.468;2024-03-07T12:44:01;25.90;;;17.05;;
53666;SDS011;39568;51.026;5.468;2024-03-07T12:46:29;26.90;;;15.50;;
53666;SDS011;39568;51.026;5.468;2024-03-07T12:48:56;24.33;;;15.57;;
53666;SDS011;39568;51.026;5.468;2024-03-07T12:51:23;23.83;;;16.33;;
53666;SDS011;39568;51.026;5.468;2024-03-07T12:53:50;31.27;;;16.15;;
53666;SDS011;39568;51.026;5.468;2024-03-07T12:56:16;18.25;;;15.55;;
53666;SDS011;39568;51.026;5.468;2024-03-07T12:58:44;23.77;;;15.80;;
53666;SDS011;39568;51.026;5.468;2024-03-07T13:01:11;23.73;;;15.57;;
53666;SDS011;39568;51.026;5.468;2024-03-07T13:03:39;22.80;;;17.10;;
53666;SDS011;39568;51.026;5.468;2024-03-07T13:06:07;23.98;;;15.55;;
53666;SDS011;39568;51.026;5.468;2024-03-07T13:08:35;24.33;;;15.55;;
53666;SDS011;39568;51.026;5.468;2024-03-07T13:11:02;26.60;;;16.20;;
53666;SDS011;39568;51.026;5.468;2024-03-07T13:13:30;23.67;;;16.85;;
53666;SDS011;39568;51.026;5.468;2024-03-07T13:15:57;22.80;;;16.00;;
53666;SDS011;39568;51.026;5.468;2024-03-07T13:18:23;24.00;;;16.08;;
53666;SDS011;39568;51.026;5.468;2024-03-07T13:20:51;21.77;;;16.75;;
53666;SDS011;39568;51.026;5.468;2024-03-07T13:23:18;21.80;;;16.38;;
53666;SDS011;39568;51.026;5.468;2024-03-07T13:25:44;23.75;;;16.20;;
53666;SDS011;39568;51.026;5.468;2024-03-07T13:28:11;28.08;;;17.25;;
53666;SDS011;39568;51.026;5.468;2024-03-07T13:30:38;24.85;;;16.48;;
53666;SDS011;39568;51.026;5.468;2024-03-07T13:33:05;24.33;;;16.92;;
53666;SDS011;39568;51.026;5.468;2024-03-07T13:35:32;27.80;;;17.23;;
53666;SDS011;39568;51.026;5.468;2024-03-07T13:38:02;22.25;;;16.20;;
53666;SDS011;39568;51.026;5.468;2024-03-07T13:40:29;25.55;;;15.05;;
53666;SDS011;39568;51.026;5.468;2024-03-07T13:42:56;19.17;;;14.25;;
53666;SDS011;39568;51.026;5.468;2024-03-07T13:45:23;22.50;;;16.70;;
53666;SDS011;39568;51.026;5.468;2024-03-07T13:47:51;21.90;;;15.27;;
53666;SDS011;39568;51.026;5.468;2024-03-07T13:50:19;21.35;;;14.27;;
53666;SDS011;39568;51.026;5.468;2024-03-07T13:52:47;20.10;;;15.15;;
53666;SDS011;39568;51.026;5.468;2024-03-07T13:55:29;23.55;;;13.15;;
53666;SDS011;39568;51.026;5.468;2024-03-07T13:57:57;26.98;;;16.13;;
53666;SDS011;39568;51.026;5.468;2024-03-07T14:00:31;20.77;;;13.98;;
53666;SDS011;39568;51.026;5.468;2024-03-07T14:06:02;24.67;;;14.32;;
53666;SDS011;39568;51.026;5.468;2024-03-07T14:14:06;21.13;;;14.02;;
53666;SDS011;39568;51.026;5.468;2024-03-07T14:16:52;27.23;;;15.57;;
53666;SDS011;39568;51.026;5.468;2024-03-07T14:22:16;20.67;;;13.90;;
53666;SDS011;39568;51.026;5.468;2024-03-07T14:27:32;21.50;;;13.45;;
53666;SDS011;39568;51.026;5.468;2024-03-07T14:30:11;18.88;;;14.35;;
53666;SDS011;39568;51.026;5.468;2024-03-07T14:32:46;20.05;;;14.80;;
53666;SDS011;39568;51.026;5.468;2024-03-07T14:35:14;20.65;;;14.57;;
53666;SDS011;39568;51.026;5.468;2024-03-07T14:37:45;20.88;;;14.80;;